createdAt,value
2023-04-28T00:04:39.853Z,11.18
2023-04-28T00:09:42.696Z,11.11
2023-04-28T00:14:45.463Z,10.96
2023-04-28T00:19:49.904Z,10.98
2023-04-28T00:24:52.763Z,10.63
2023-04-28T00:29:55.803Z,10.73
2023-04-28T00:35:00.200Z,10.52
2023-04-28T00:40:03.220Z,10.32
2023-04-28T00:45:07.657Z,10.21
2023-04-28T00:50:12.122Z,10.22
2023-04-28T00:55:16.900Z,10.19
2023-04-28T01:00:19.731Z,10.13
2023-04-28T01:05:26.499Z,9.97
2023-04-28T01:10:29.550Z,9.93
2023-04-28T01:15:36.543Z,10.02
2023-04-28T01:20:40.847Z,9.89
2023-04-28T01:25:45.932Z,9.98
2023-04-28T01:30:48.741Z,9.97
2023-04-28T01:35:51.595Z,9.78
2023-04-28T01:40:58.572Z,9.70
2023-04-28T01:46:01.635Z,9.67
2023-04-28T01:51:04.849Z,9.91
2023-04-28T01:56:09.284Z,10.04
2023-04-28T02:01:12.247Z,9.87
2023-04-28T02:06:15.709Z,9.68
2023-04-28T02:11:25.214Z,9.87
2023-04-28T02:16:37.768Z,9.77
2023-04-28T02:21:49.407Z,9.56
2023-04-28T02:26:53.730Z,9.74
2023-04-28T02:31:56.754Z,9.40
2023-04-28T02:36:59.542Z,9.71
2023-04-28T02:42:05.378Z,9.42
2023-04-28T02:47:08.389Z,9.42
2023-04-28T02:52:11.660Z,9.51
2023-04-28T02:57:15.983Z,9.17
2023-04-28T03:02:20.688Z,9.49
2023-04-28T03:07:24.068Z,9.09
2023-04-28T03:12:32.646Z,9.24
2023-04-28T03:17:36.617Z,9.06
2023-04-28T03:22:39.568Z,9.10
2023-04-28T03:27:46.485Z,9.16
2023-04-28T03:32:52.428Z,9.25
2023-04-28T03:37:55.476Z,9.41
2023-04-28T03:43:03.983Z,9.28
2023-04-28T03:48:12.601Z,9.29
2023-04-28T03:53:15.686Z,9.09
2023-04-28T04:03:39.811Z,9.24
2023-04-28T04:08:43.108Z,9.07
2023-04-28T04:13:47.290Z,9.08
2023-04-28T04:18:55.530Z,8.98
2023-04-28T04:24:10.936Z,9.26
2023-04-28T04:29:15.700Z,8.69
2023-04-28T04:34:18.844Z,8.81
2023-04-28T04:39:22.415Z,9.27
2023-04-28T04:44:26.797Z,9.37
2023-04-28T04:49:30.434Z,9.06
2023-04-28T04:54:33.314Z,9.12
2023-04-28T04:59:37.469Z,9.43
2023-04-28T05:04:45.186Z,9.20
2023-04-28T05:09:50.354Z,9.29
2023-04-28T05:14:54.645Z,9.37
2023-04-28T05:19:58.099Z,9.14
2023-04-28T05:25:01.189Z,9.55
2023-04-28T05:30:08.664Z,9.82
2023-04-28T05:35:15.168Z,9.73
2023-04-28T05:40:18.266Z,9.92
2023-04-28T05:45:22.698Z,10.29
2023-04-28T05:50:26.504Z,10.54
2023-04-28T06:08:09.153Z,12.42
2023-04-28T06:13:14.578Z,12.36
2023-04-28T06:18:19.577Z,12.64
2023-04-28T06:23:22.960Z,13.73
2023-04-28T06:28:27.014Z,15.08
2023-04-28T06:33:31.360Z,16.44
2023-04-28T06:38:40.202Z,17.84
2023-04-28T06:43:52.592Z,18.55
2023-04-28T06:49:10.867Z,18.76
2023-04-28T06:54:20.960Z,17.61
2023-04-28T06:59:38.611Z,18.39
2023-04-28T07:04:46.122Z,18.84
2023-04-28T07:09:53.601Z,19.28
2023-04-28T07:15:02.270Z,19.53
2023-04-28T07:20:07.943Z,21.00
2023-04-28T07:25:11.326Z,22.59
2023-04-28T07:30:26.442Z,24.29
2023-04-28T07:35:32.191Z,25.30
2023-04-28T07:40:35.017Z,24.20
2023-04-28T07:45:39.949Z,21.99
2023-04-28T07:50:44.155Z,22.91
2023-04-28T07:55:46.988Z,22.43
2023-04-28T08:00:49.775Z,20.91
2023-04-28T08:05:54.066Z,18.99
2023-04-28T08:10:57.249Z,18.58
2023-04-28T08:16:01.094Z,18.62
2023-04-28T08:21:05.607Z,17.01
2023-04-28T08:26:10.207Z,16.12
2023-04-28T08:31:13.090Z,17.69
2023-04-28T08:36:18.050Z,17.34
2023-04-28T08:41:21.816Z,17.51
2023-04-28T08:46:28.484Z,17.64
2023-04-28T08:51:37.056Z,16.37
2023-04-28T08:56:40.402Z,16.05
2023-04-28T09:01:48.790Z,15.99
2023-04-28T09:06:53.212Z,16.51
2023-04-28T09:11:58.266Z,17.02
2023-04-28T09:17:02.085Z,17.05
2023-04-28T09:22:24.684Z,17.42
2023-04-28T09:27:30.765Z,16.62
2023-04-28T09:32:36.380Z,16.76
2023-04-28T09:37:43.541Z,17.74
2023-04-28T09:42:47.830Z,18.28
2023-04-28T09:47:50.709Z,18.02
2023-04-28T09:52:59.284Z,18.49
2023-04-28T09:58:10.939Z,18.04
2023-04-28T10:03:16.588Z,17.91
2023-04-28T10:08:21.705Z,17.66
2023-04-28T10:13:25.471Z,17.60
2023-04-28T10:18:29.756Z,17.70
2023-04-28T10:23:53.566Z,17.30
2023-04-28T10:28:56.693Z,16.85
2023-04-28T10:34:23.009Z,17.89
2023-04-28T10:39:27.134Z,17.93
2023-04-28T10:44:45.973Z,17.55
2023-04-28T10:50:11.455Z,18.00
2023-04-28T10:55:32.996Z,18.64
2023-04-28T11:00:56.403Z,18.30
2023-04-28T11:06:20.629Z,18.15
2023-04-28T11:11:26.820Z,18.63
2023-04-28T11:16:29.774Z,18.73
2023-04-28T11:21:36.745Z,18.09
2023-04-28T11:26:41.517Z,17.80
2023-04-28T11:31:51.267Z,18.38
2023-04-28T11:36:55.013Z,18.61
2023-04-28T11:42:00.743Z,18.82
2023-04-28T11:47:05.214Z,18.43
2023-04-28T11:52:09.833Z,18.60
2023-04-28T11:57:21.109Z,18.59
2023-04-28T12:02:32.008Z,18.13
2023-04-28T12:07:43.682Z,18.82
2023-04-28T12:12:52.458Z,18.79
2023-04-28T12:17:57.848Z,19.07
2023-04-28T12:23:02.842Z,18.90
2023-04-28T12:28:10.803Z,17.91
2023-04-28T12:33:24.515Z,18.30
2023-04-28T12:38:29.466Z,17.33
2023-04-28T12:43:35.498Z,17.36
2023-04-28T12:48:39.515Z,17.61
2023-04-28T12:53:42.369Z,17.19
2023-04-28T12:58:46.637Z,17.87
2023-04-28T13:03:51.884Z,17.95
2023-04-28T13:08:56.029Z,17.31
2023-04-28T13:14:04.144Z,17.03
2023-04-28T13:19:10.681Z,16.90
2023-04-28T13:24:39.014Z,17.26
2023-04-28T13:29:43.737Z,17.61
2023-04-28T13:34:58.833Z,17.48
2023-04-28T13:40:04.359Z,17.40
2023-04-28T13:45:09.413Z,17.38
2023-04-28T13:50:12.727Z,17.18
2023-04-28T13:55:21.177Z,17.71
2023-04-28T14:00:25.624Z,17.37
2023-04-28T14:05:49.720Z,17.90
2023-04-28T14:10:53.334Z,17.72
2023-04-28T14:16:07.662Z,17.20
2023-04-28T14:21:13.674Z,17.23
2023-04-28T14:26:23.937Z,17.55
2023-04-28T14:32:12.080Z,17.36
2023-04-28T14:37:17.718Z,17.23
2023-04-28T14:42:23.366Z,17.44
2023-04-28T14:47:28.926Z,16.96
2023-04-28T14:52:32.584Z,16.94
2023-04-28T14:57:38.043Z,17.10
2023-04-28T15:02:42.471Z,17.14
2023-04-28T15:07:45.554Z,17.01
2023-04-28T15:12:51.010Z,16.68
2023-04-28T15:18:00.597Z,17.16
2023-04-28T15:23:03.664Z,17.45
2023-04-28T15:28:11.852Z,17.49
2023-04-28T15:33:18.690Z,17.12
2023-04-28T15:38:22.977Z,16.55
2023-04-28T15:43:28.286Z,16.48
2023-04-28T15:48:43.062Z,16.42
2023-04-28T15:54:23.281Z,16.59
2023-04-28T16:05:39.161Z,16.90
2023-04-28T16:10:48.195Z,17.28
2023-04-28T16:34:37.203Z,16.47
2023-04-28T16:39:58.967Z,16.76
2023-04-28T16:45:01.842Z,16.88
2023-04-28T16:50:05.035Z,16.84
2023-04-28T16:55:10.469Z,16.70
2023-04-28T17:00:15.125Z,16.57
2023-04-28T17:05:18.054Z,16.59
2023-04-28T17:10:22.803Z,16.42
2023-04-28T17:15:27.156Z,16.93
2023-04-28T17:20:30.154Z,16.59
2023-04-28T17:26:44.471Z,16.71
2023-04-28T17:32:03.762Z,16.29
2023-04-28T17:44:21.309Z,15.85
2023-04-28T17:49:25.690Z,15.91
2023-04-28T17:54:31.765Z,15.94
2023-04-28T17:59:37.041Z,16.05
2023-04-28T18:04:56.859Z,16.40
2023-04-28T18:10:51.348Z,15.67
2023-04-28T18:23:36.554Z,15.62
2023-04-28T18:28:39.758Z,15.55
2023-04-28T18:33:45.947Z,15.34
2023-04-28T18:38:49.335Z,14.93
2023-04-28T18:43:53.768Z,14.55
2023-04-28T18:49:00.213Z,14.03
2023-04-28T18:54:08.314Z,14.11
2023-04-28T18:59:13.778Z,14.02
2023-04-28T19:04:18.891Z,13.95
2023-04-28T19:09:25.855Z,14.39
2023-04-28T19:14:31.644Z,14.36
2023-04-28T19:19:40.803Z,14.67
2023-04-28T19:24:48.631Z,14.74
2023-04-28T19:29:53.181Z,14.56
2023-04-28T19:34:56.683Z,14.36
2023-04-28T19:40:00.101Z,14.24
2023-04-28T19:45:07.364Z,14.41
2023-04-28T19:50:11.599Z,14.58
2023-04-28T19:55:18.286Z,14.31
2023-04-28T20:00:24.273Z,14.24
2023-04-28T20:05:27.167Z,14.34
2023-04-28T20:10:30.359Z,14.16
2023-04-28T20:15:34.767Z,14.12
2023-04-28T20:20:37.784Z,13.72
2023-04-28T20:25:41.360Z,13.72
2023-04-28T20:30:45.848Z,13.58
2023-04-28T20:35:48.936Z,13.30
2023-04-28T20:40:52.329Z,13.43
2023-04-28T20:45:57.764Z,13.62
2023-04-28T20:51:03.637Z,14.34
2023-04-28T20:56:06.748Z,13.67
2023-04-28T21:01:11.146Z,13.54
2023-04-28T21:06:13.980Z,14.06
2023-04-28T21:11:17.794Z,14.10
2023-04-28T21:16:22.467Z,13.60
2023-04-28T21:21:25.356Z,13.71
2023-04-28T21:26:28.214Z,13.44
2023-04-28T21:31:32.448Z,13.33
2023-04-28T21:36:35.340Z,13.19
2023-04-28T21:41:38.557Z,13.03
2023-04-28T21:46:42.800Z,12.84
2023-04-28T22:05:38.284Z,12.42
2023-04-28T22:10:41.269Z,12.71
2023-04-28T22:15:44.118Z,12.65
2023-04-28T22:20:50.073Z,12.57
2023-04-28T22:25:53.336Z,12.33
2023-04-28T22:30:56.114Z,12.29
2023-04-28T22:36:00.377Z,12.37
2023-04-28T22:41:03.302Z,12.46
2023-04-28T22:46:06.183Z,12.32
2023-04-28T22:51:10.387Z,12.44
2023-04-28T22:56:13.251Z,11.90
2023-04-28T23:01:16.265Z,12.45
2023-04-28T23:06:20.543Z,12.50
2023-04-28T23:11:24.140Z,12.30
2023-04-28T23:16:29.926Z,12.27
2023-04-28T23:21:34.156Z,12.02
2023-04-28T23:26:37.886Z,12.05
2023-04-28T23:31:40.783Z,11.77
2023-04-28T23:36:50.631Z,12.10
2023-04-28T23:41:57.005Z,12.04
2023-04-28T23:47:02.784Z,11.95
2023-04-28T23:52:07.671Z,11.76
2023-04-28T23:57:10.663Z,11.85
